TimeEDT,TemperatureF,Dew PointF,Humidity,Sea Level PressureIn,VisibilityMPH,Wind Direction,Wind SpeedMPH,Gust SpeedMPH,PrecipitationIn,Events,Conditions,WindDirDegrees,DateUTC
12:52 AM,46.9,42.1,83,30.05,10.0,Calm,Calm,-,N/A,,Partly Cloudy,0,2012-10-07 04:52:00
1:52 AM,46.9,43.0,86,30.06,10.0,West,3.5,-,N/A,,Mostly Cloudy,270,2012-10-07 05:52:00
2:52 AM,46.9,43.0,86,30.05,10.0,Calm,Calm,-,N/A,,Overcast,0,2012-10-07 06:52:00
3:52 AM,46.9,42.1,83,30.04,10.0,Calm,Calm,-,0.00,Rain,Light Rain,0,2012-10-07 07:52:00
4:52 AM,46.0,42.1,86,30.04,6.0,Calm,Calm,-,0.06,Rain,Rain,0,2012-10-07 08:52:00
4:59 AM,46.4,42.8,87,30.07,5.0,NW,3.5,-,0.02,Rain,Rain,320,2012-10-07 08:59:00
5:35 AM,44.6,41.0,87,30.06,7.0,ENE,3.5,-,0.07,Rain,Rain,70,2012-10-07 09:35:00
5:52 AM,45.0,41.0,86,30.04,8.0,Calm,Calm,-,0.10,Rain,Light Rain,0,2012-10-07 09:52:00
6:52 AM,45.0,39.9,82,30.04,10.0,North,5.8,-,0.03,Rain,Light Rain,360,2012-10-07 10:52:00
7:52 AM,45.0,42.1,90,30.05,10.0,Calm,Calm,-,0.00,,Overcast,0,2012-10-07 11:52:00
8:38 AM,44.6,42.8,93,30.07,10.0,Calm,Calm,-,N/A,,Overcast,0,2012-10-07 12:38:00
8:52 AM,45.0,42.1,90,30.06,10.0,Calm,Calm,-,N/A,,Overcast,0,2012-10-07 12:52:00
9:45 AM,46.4,42.8,87,30.07,10.0,ENE,3.5,-,N/A,,Overcast,70,2012-10-07 13:45:00
9:52 AM,46.0,42.1,86,30.06,10.0,NNE,3.5,-,N/A,,Overcast,30,2012-10-07 13:52:00
10:52 AM,46.0,42.1,86,30.07,2.5,East,3.5,-,0.01,,Overcast,100,2012-10-07 14:52:00
11:05 AM,46.4,42.8,87,30.08,2.5,East,3.5,-,N/A,,Overcast,90,2012-10-07 15:05:00
11:52 AM,46.0,43.0,89,30.07,3.0,Calm,Calm,-,0.01,,Overcast,0,2012-10-07 15:52:00
12:03 PM,46.4,42.8,87,30.08,3.0,Calm,Calm,-,N/A,,Overcast,0,2012-10-07 16:03:00
12:52 PM,46.9,43.0,86,30.05,8.0,Calm,Calm,-,N/A,,Overcast,0,2012-10-07 16:52:00
1:20 PM,46.4,42.8,87,30.07,2.0,Calm,Calm,-,0.01,,Overcast,0,2012-10-07 17:20:00
1:32 PM,46.4,42.8,87,30.07,1.8,Calm,Calm,-,0.01,Rain,Light Rain,0,2012-10-07 17:32:00
1:42 PM,46.4,42.8,87,30.08,2.0,WNW,3.5,-,0.02,Rain,Light Rain,290,2012-10-07 17:42:00
1:52 PM,46.9,43.0,86,30.07,2.5,West,4.6,-,0.02,Rain,Light Rain,280,2012-10-07 17:52:00
2:24 PM,46.4,42.8,87,30.09,4.0,WNW,10.4,16.1,0.05,Rain,Light Rain,300,2012-10-07 18:24:00
2:40 PM,46.4,42.8,87,30.09,5.0,NW,6.9,17.3,0.06,Rain,Light Rain,310,2012-10-07 18:40:00
2:52 PM,46.0,42.1,86,30.09,4.0,NW,10.4,-,0.06,Rain,Light Rain,310,2012-10-07 18:52:00
3:52 PM,44.1,39.0,82,30.11,8.0,NW,6.9,-,0.05,Rain,Rain,310,2012-10-07 19:52:00
4:28 PM,44.6,39.2,81,30.13,10.0,West,8.1,-,0.01,Rain,Light Rain,280,2012-10-07 20:28:00
4:47 PM,44.6,39.2,81,30.12,10.0,West,4.6,-,0.01,,Overcast,280,2012-10-07 20:47:00
4:52 PM,45.0,39.9,82,30.11,10.0,West,3.5,-,0.01,,Overcast,270,2012-10-07 20:52:00
4:59 PM,44.6,39.2,81,30.12,10.0,West,5.8,-,N/A,,Overcast,270,2012-10-07 20:59:00
5:13 PM,44.6,39.2,81,30.12,10.0,Variable,6.9,-,N/A,,Overcast,0,2012-10-07 21:13:00
5:20 PM,44.6,39.2,81,30.12,10.0,West,6.9,-,N/A,,Overcast,280,2012-10-07 21:20:00
5:40 PM,44.6,39.2,81,30.11,10.0,West,5.8,-,N/A,,Mostly Cloudy,280,2012-10-07 21:40:00
5:48 PM,44.6,37.4,76,30.12,10.0,WNW,5.8,-,N/A,,Scattered Clouds,290,2012-10-07 21:48:00
5:52 PM,44.1,37.9,79,30.11,10.0,WNW,5.8,-,N/A,,Partly Cloudy,290,2012-10-07 21:52:00
6:52 PM,43.0,37.0,80,30.12,10.0,Calm,Calm,-,N/A,,Clear,0,2012-10-07 22:52:00
7:52 PM,41.0,36.0,82,30.14,10.0,Calm,Calm,-,N/A,,Clear,0,2012-10-07 23:52:00
8:34 PM,41.0,37.4,87,30.14,10.0,West,3.5,-,N/A,,Mostly Cloudy,280,2012-10-08 00:34:00
8:41 PM,41.0,37.4,87,30.14,10.0,West,3.5,-,N/A,,Scattered Clouds,270,2012-10-08 00:41:00
8:52 PM,42.1,37.0,82,30.15,10.0,Calm,Calm,-,N/A,,Partly Cloudy,0,2012-10-08 00:52:00
9:52 PM,39.9,37.0,89,30.17,9.0,West,3.5,-,N/A,,Clear,260,2012-10-08 01:52:00
10:04 PM,39.2,37.4,93,30.17,1.8,West,3.5,-,N/A,,Mostly Cloudy,260,2012-10-08 02:04:00
10:14 PM,39.2,37.4,93,30.16,1.0,Calm,Calm,-,N/A,,Mostly Cloudy,0,2012-10-08 02:14:00
10:21 PM,39.2,37.4,93,30.17,0.5,WSW,3.5,-,N/A,Fog,Fog,250,2012-10-08 02:21:00
10:37 PM,41.0,37.4,87,30.17,1.2,WSW,3.5,-,N/A,,Overcast,250,2012-10-08 02:37:00
10:42 PM,41.0,37.4,87,30.17,3.0,Calm,Calm,-,N/A,,Overcast,0,2012-10-08 02:42:00
10:52 PM,41.0,37.9,89,30.18,9.0,WSW,3.5,-,N/A,,Overcast,250,2012-10-08 02:52:00
11:52 PM,41.0,37.9,89,30.17,10.0,Calm,Calm,-,N/A,,Mostly Cloudy,0,2012-10-08 03:52:00